Time;durP1;ratioP1;P1;durP2;ratioP2;P2;SDS_P1;SDS_P2;PMS_P1;PMS_P2;Temp;Humidity;BMP_temperature;BMP_pressure;BME280_temperature;BME280_humidity;BME280_pressure;Samples;Min_cycle;Max_cycle;Signal;HPM_P1;HPM_P2
2022/09/12 00:01:06;;;;;;;11.55;8.98;;;20.30;54.30;;;;;;5031696;28;20670;-43
2022/09/12 00:03:32;;;;;;;12.70;11.32;;;20.30;54.30;;;;;;5031568;28;20193;-43
2022/09/12 00:05:58;;;;;;;13.93;12.20;;;20.30;54.30;;;;;;5031455;28;20329;-43
2022/09/12 00:08:24;;;;;;;13.75;10.25;;;20.30;54.30;;;;;;5031823;28;20429;-44
2022/09/12 00:10:49;;;;;;;13.50;12.10;;;20.30;54.30;;;;;;5031530;28;20229;-44
2022/09/12 00:13:15;;;;;;;21.17;12.80;;;20.30;54.40;;;;;;5031621;28;20638;-44
2022/09/12 00:15:42;;;;;;;13.83;11.20;;;20.30;55.10;;;;;;5031363;28;20174;-44
2022/09/12 00:18:12;;;;;;;13.33;10.50;;;20.30;54.40;;;;;;5031572;28;20213;-45
2022/09/12 00:20:42;;;;;;;12.30;10.40;;;20.30;54.30;;;;;;5031501;28;20432;-44
2022/09/12 00:23:08;;;;;;;14.55;12.15;;;20.40;54.30;;;;;;5031578;28;20452;-44
2022/09/12 00:25:41;;;;;;;13.18;11.85;;;20.40;54.30;;;;;;5031631;28;20241;-45
2022/09/12 00:28:06;;;;;;;15.13;10.57;;;20.40;54.30;;;;;;5017464;28;20158;-45
2022/09/12 00:30:32;;;;;;;16.50;12.13;;;20.40;54.30;;;;;;5035124;28;20244;-44
2022/09/12 00:32:58;;;;;;;12.33;11.03;;;20.40;54.30;;;;;;5035277;28;20416;-44
2022/09/12 00:35:24;;;;;;;12.27;11.03;;;20.40;54.30;;;;;;5035325;28;20499;-44
2022/09/12 00:37:50;;;;;;;15.90;10.63;;;20.40;54.40;;;;;;5034940;28;20691;-44
2022/09/12 00:40:15;;;;;;;13.83;12.37;;;20.40;54.30;;;;;;5034993;28;20193;-43
2022/09/12 00:42:41;;;;;;;14.80;12.40;;;20.30;54.20;;;;;;5034844;28;20178;-45
2022/09/12 00:45:18;;;;;;;12.60;10.23;;;20.30;54.30;;;;;;5035181;28;20404;-45
2022/09/12 00:47:44;;;;;;;15.90;11.30;;;20.30;54.30;;;;;;5034878;28;20185;-44
2022/09/12 00:50:13;;;;;;;13.50;11.23;;;20.30;54.20;;;;;;5017048;28;20271;-43
2022/09/12 00:52:42;;;;;;;11.55;10.00;;;20.30;54.20;;;;;;5034735;28;20232;-44
2022/09/12 00:55:36;;;;;;;13.77;9.65;;;20.30;54.10;;;;;;5034974;28;20178;-44
2022/09/12 00:58:20;;;;;;;15.15;10.55;;;20.30;53.90;;;;;;5032085;28;20192;-44
2022/09/12 01:00:46;;;;;;;11.50;10.10;;;20.20;53.80;;;;;;5034579;28;20201;-44
2022/09/12 01:03:15;;;;;;;9.80;8.50;;;20.10;53.90;;;;;;5034468;28;20197;-45
2022/09/12 01:06:00;;;;;;;12.98;10.45;;;20.10;53.80;;;;;;5034296;28;20454;-44
2022/09/12 01:08:27;;;;;;;11.00;9.90;;;20.10;53.70;;;;;;5034674;28;20309;-45
2022/09/12 01:10:54;;;;;;;10.38;8.30;;;20.00;53.60;;;;;;5034235;28;20194;-45
2022/09/12 01:13:20;;;;;;;12.88;9.00;;;20.00;53.40;;;;;;5034392;28;20177;-45
2022/09/12 01:15:46;;;;;;;11.90;9.90;;;20.00;53.40;;;;;;5034149;28;20182;-45
2022/09/12 01:18:48;;;;;;;14.77;11.07;;;19.90;53.20;;;;;;5034262;28;20236;-44
2022/09/12 01:21:26;;;;;;;12.77;11.50;;;19.90;53.10;;;;;;5016461;28;20435;-46
2022/09/12 01:24:28;;;;;;;11.82;9.40;;;19.80;53.40;;;;;;5034324;28;20205;-43
2022/09/12 01:27:18;;;;;;;13.63;12.20;;;19.70;53.40;;;;;;5033936;28;20610;-46
2022/09/12 01:29:44;;;;;;;21.23;9.95;;;19.70;53.50;;;;;;5034286;28;20603;-45
2022/09/12 01:32:25;;;;;;;9.57;8.33;;;19.60;53.50;;;;;;5034155;28;20194;-44
2022/09/12 01:35:03;;;;;;;14.30;11.50;;;19.60;53.50;;;;;;5034105;28;20536;-45
2022/09/12 01:37:38;;;;;;;10.85;9.75;;;19.60;53.60;;;;;;5033742;28;20231;-45
2022/09/12 01:40:14;;;;;;;15.07;10.52;;;19.70;53.70;;;;;;5034018;28;20193;-44
2022/09/12 01:43:08;;;;;;;11.75;10.50;;;19.60;53.50;;;;;;5034022;28;20757;-44
2022/09/12 01:45:45;;;;;;;12.55;9.80;;;19.70;53.50;;;;;;5025890;28;20658;-43
2022/09/12 01:48:20;;;;;;;13.25;10.68;;;19.70;53.60;;;;;;5033992;28;20170;-45
2022/09/12 01:51:11;;;;;;;11.18;9.85;;;19.60;53.50;;;;;;5033711;28;20372;-44
2022/09/12 01:53:43;;;;;;;12.40;9.75;;;19.70;53.50;;;;;;5033666;28;20648;-44
2022/09/12 01:56:19;;;;;;;11.32;8.65;;;19.60;53.50;;;;;;5033283;28;20166;-46
2022/09/12 01:58:51;;;;;;;11.77;10.57;;;19.70;53.70;;;;;;5033503;28;20657;-44
2022/09/12 02:01:23;;;;;;;12.02;9.57;;;19.60;53.50;;;;;;5033437;28;20213;-45
2022/09/12 02:04:12;;;;;;;11.85;9.68;;;19.60;53.50;;;;;;5033359;28;20705;-46
2022/09/12 02:06:55;;;;;;;11.93;10.57;;;19.60;53.60;;;;;;5033215;28;20208;-44
2022/09/12 02:09:31;;;;;;;13.57;10.43;;;19.60;53.60;;;;;;5033367;28;20201;-43
2022/09/12 02:11:59;;;;;;;12.45;11.23;;;19.60;53.60;;;;;;5033331;28;20248;-44
2022/09/12 02:14:35;;;;;;;12.02;10.82;;;19.60;53.70;;;;;;5033342;28;20186;-44
2022/09/12 02:17:12;;;;;;;12.77;10.30;;;19.60;53.70;;;;;;5032981;28;20727;-44
2022/09/12 02:20:06;;;;;;;10.65;9.55;;;19.60;53.70;;;;;;5033067;28;20229;-45
2022/09/12 02:22:36;;;;;;;14.43;11.52;;;19.60;53.70;;;;;;5033014;28;20153;-44
2022/09/12 02:25:04;;;;;;;15.20;11.85;;;19.60;53.70;;;;;;5033046;28;20642;-45
2022/09/12 02:27:52;;;;;;;14.60;12.43;;;19.60;53.70;;;;;;5032693;28;20228;-45
2022/09/12 02:30:18;;;;;;;15.35;10.57;;;19.50;53.70;;;;;;5032943;28;20212;-46
2022/09/12 02:33:00;;;;;;;13.25;10.93;;;19.50;53.90;;;;;;5033034;28;20174;-45
2022/09/12 02:35:37;;;;;;;15.73;12.63;;;19.60;53.80;;;;;;5032947;28;20166;-45
2022/09/12 02:38:02;;;;;;;12.20;10.88;;;19.60;53.70;;;;;;5032775;28;20630;-45
2022/09/12 02:40:29;;;;;;;16.47;12.13;;;19.50;53.80;;;;;;5014978;28;20281;-45
2022/09/12 02:42:56;;;;;;;13.95;11.52;;;19.50;53.80;;;;;;5014974;28;20297;-44
2022/09/12 02:45:22;;;;;;;14.02;10.35;;;19.50;53.70;;;;;;5032765;28;20228;-44
2022/09/12 02:47:57;;;;;;;17.15;12.30;;;19.50;53.80;;;;;;5032707;28;20580;-45
2022/09/12 02:50:23;;;;;;;11.50;9.85;;;19.50;53.80;;;;;;5032116;28;20185;-45
2022/09/12 02:52:52;;;;;;;11.85;10.65;;;19.50;53.80;;;;;;5032716;28;20182;-45
2022/09/12 02:55:18;;;;;;;13.00;11.00;;;19.50;53.70;;;;;;5032708;28;20185;-45
2022/09/12 02:57:44;;;;;;;11.75;10.52;;;19.50;53.70;;;;;;5032381;28;20174;-45
2022/09/12 03:00:11;;;;;;;14.87;10.10;;;19.50;53.70;;;;;;5032420;28;20251;-44
2022/09/12 03:03:03;;;;;;;14.27;12.23;;;19.40;53.60;;;;;;5032293;28;20664;-45
2022/09/12 03:05:46;;;;;;;14.55;12.23;;;19.40;53.60;;;;;;5028473;28;20570;-44
2022/09/12 03:08:36;;;;;;;14.70;10.73;;;19.40;53.80;;;;;;5032309;28;20158;-44
2022/09/12 03:11:37;;;;;;;15.55;11.20;;;19.40;53.80;;;;;;5032109;28;20646;-44
2022/09/12 03:14:53;;;;;;;15.25;11.38;;;19.40;53.90;;;;;;5032308;28;20522;-46
2022/09/12 03:17:35;;;;;;;16.23;12.52;;;19.40;53.90;;;;;;4951534;29;20196;-44
2022/09/12 03:20:27;;;;;;;14.23;12.20;;;19.30;53.90;;;;;;5024002;28;20289;-45
2022/09/12 03:23:02;;;;;;;15.35;11.65;;;19.40;53.80;;;;;;5032234;28;20271;-46
2022/09/12 03:25:47;;;;;;;15.50;12.85;;;19.30;53.90;;;;;;5032120;28;20177;-44
2022/09/12 03:28:16;;;;;;;14.07;11.63;;;19.40;53.80;;;;;;5032235;28;20256;-45
2022/09/12 03:30:44;;;;;;;12.70;11.05;;;19.40;53.90;;;;;;5031987;28;20182;-44
2022/09/12 03:33:15;;;;;;;16.05;13.13;;;19.30;53.80;;;;;;5032154;28;20182;-44
2022/09/12 03:35:41;;;;;;;15.10;12.55;;;19.30;53.60;;;;;;5031800;28;20565;-44
2022/09/12 03:38:07;;;;;;;13.43;10.90;;;19.30;53.60;;;;;;5031956;28;20178;-43
2022/09/12 03:40:34;;;;;;;14.05;11.40;;;19.30;53.70;;;;;;5032059;28;20209;-45
2022/09/12 03:43:00;;;;;;;21.63;13.38;;;19.30;53.80;;;;;;5032097;28;20205;-45
2022/09/12 03:45:26;;;;;;;14.30;11.60;;;19.30;53.80;;;;;;5032044;28;20173;-44
2022/09/12 03:47:51;;;;;;;19.00;10.63;;;19.30;53.80;;;;;;5031761;28;20170;-44
2022/09/12 03:50:17;;;;;;;12.87;10.40;;;19.30;53.90;;;;;;5031828;28;20550;-45
2022/09/12 03:52:43;;;;;;;13.00;10.67;;;19.30;53.90;;;;;;5031755;28;20319;-44
2022/09/12 03:55:09;;;;;;;12.53;11.23;;;19.30;53.90;;;;;;5031832;28;20181;-44
2022/09/12 03:57:35;;;;;;;13.90;11.30;;;19.30;53.80;;;;;;5031527;28;20626;-44
2022/09/12 04:00:01;;;;;;;15.60;11.40;;;19.30;53.90;;;;;;5032721;28;20259;-44
2022/09/12 04:02:28;;;;;;;13.93;12.43;;;19.30;53.80;;;;;;5035926;28;20177;-44
2022/09/12 04:04:53;;;;;;;12.23;10.65;;;19.30;53.90;;;;;;5035476;28;20456;-45
2022/09/12 04:07:19;;;;;;;16.30;10.70;;;19.30;53.90;;;;;;5035333;28;20170;-45
2022/09/12 04:09:45;;;;;;;15.20;11.20;;;19.30;53.80;;;;;;5035334;28;20280;-45
2022/09/12 04:12:11;;;;;;;16.50;12.97;;;19.30;53.90;;;;;;5035547;28;20732;-45
2022/09/12 04:14:37;;;;;;;13.85;11.95;;;19.30;53.80;;;;;;5035566;28;20174;-44
2022/09/12 04:17:03;;;;;;;16.20;12.87;;;19.30;53.80;;;;;;5035524;28;20519;-44
2022/09/12 04:19:29;;;;;;;14.43;12.45;;;19.30;53.90;;;;;;5035530;28;20432;-45
2022/09/12 04:21:54;;;;;;;15.00;13.07;;;19.30;53.90;;;;;;5035494;28;20239;-44
2022/09/12 04:24:20;;;;;;;16.80;12.33;;;19.30;53.80;;;;;;5035290;28;20661;-45
2022/09/12 04:26:46;;;;;;;14.43;11.40;;;19.30;53.90;;;;;;5035055;28;20204;-46
2022/09/12 04:29:13;;;;;;;13.77;11.90;;;20.30;54.40;;;;;;5035180;28;20169;-45
2022/09/12 04:31:40;;;;;;;15.52;11.00;;;19.30;53.90;;;;;;5035187;28;20777;-44
2022/09/12 04:34:06;;;;;;;13.48;11.10;;;19.30;53.90;;;;;;5035206;28;20181;-45
2022/09/12 04:36:33;;;;;;;13.50;10.93;;;19.30;53.90;;;;;;5034801;28;20166;-44
2022/09/12 04:39:00;;;;;;;16.42;10.38;;;19.30;53.90;;;;;;5034987;28;20185;-45
2022/09/12 04:41:32;;;;;;;13.55;11.27;;;19.30;53.80;;;;;;5034976;28;20170;-43
2022/09/12 04:44:01;;;;;;;14.27;11.85;;;19.30;53.90;;;;;;5034920;28;20190;-43
2022/09/12 04:46:28;;;;;;;12.80;10.32;;;19.30;53.90;;;;;;5034732;28;20304;-45
2022/09/12 04:48:54;;;;;;;23.42;12.50;;;19.20;53.90;;;;;;5034805;28;20173;-44
2022/09/12 04:51:32;;;;;;;16.00;12.02;;;19.20;53.80;;;;;;5034689;28;20193;-44
2022/09/12 04:54:16;;;;;;;17.15;11.48;;;19.30;54.00;;;;;;5034988;28;20193;-43
2022/09/12 04:56:47;;;;;;;14.32;12.00;;;19.20;53.90;;;;;;5034506;28;20169;-43
2022/09/12 04:59:15;;;;;;;15.70;11.90;;;19.30;54.10;;;;;;5034797;28;20174;-45
2022/09/12 05:01:41;;;;;;;16.10;12.75;;;19.20;54.00;;;;;;5034492;28;20185;-45
2022/09/12 05:04:09;;;;;;;15.63;12.43;;;19.30;54.10;;;;;;5016852;28;20213;-46
2022/09/12 05:06:37;;;;;;;13.38;11.80;;;19.30;54.20;;;;;;5034370;28;20227;-44
2022/09/12 05:09:04;;;;;;;14.23;12.52;;;19.30;54.20;;;;;;5034522;28;20174;-44
2022/09/12 05:11:34;;;;;;;16.10;13.18;;;19.30;54.30;;;;;;5033708;28;20190;-44
2022/09/12 05:14:00;;;;;;;22.77;14.85;;;19.30;54.20;;;;;;5034612;28;20178;-46
2022/09/12 05:16:27;;;;;;;13.80;11.60;;;19.30;54.20;;;;;;5034087;28;20170;-45
2022/09/12 05:18:57;;;;;;;12.73;11.40;;;19.40;54.30;;;;;;5034992;28;20463;-44
2022/09/12 05:21:23;;;;;;;18.38;13.77;;;19.40;54.40;;;;;;5034076;28;20210;-45
2022/09/12 05:23:54;;;;;;;17.20;14.90;;;19.40;54.50;;;;;;5034185;28;20604;-46
2022/09/12 05:26:21;;;;;;;19.20;14.00;;;19.40;54.30;;;;;;5033925;28;20224;-44
2022/09/12 05:28:49;;;;;;;17.15;12.20;;;19.50;54.60;;;;;;5033954;28;20541;-44
2022/09/12 05:31:25;;;;;;;18.90;14.18;;;19.50;54.60;;;;;;5033989;28;20693;-44
2022/09/12 05:33:53;;;;;;;24.48;13.80;;;19.50;54.60;;;;;;5033978;28;20174;-44
2022/09/12 05:36:24;;;;;;;21.88;16.25;;;19.50;54.60;;;;;;5015990;28;20209;-45
2022/09/12 05:38:50;;;;;;;23.52;14.98;;;19.60;54.60;;;;;;5033941;28;20261;-45
2022/09/12 05:41:21;;;;;;;19.67;14.43;;;19.60;54.60;;;;;;5033676;28;20717;-45
2022/09/12 05:43:54;;;;;;;20.05;14.52;;;19.60;54.60;;;;;;5033788;28;20236;-44
2022/09/12 05:46:22;;;;;;;20.77;15.02;;;19.60;54.60;;;;;;5033579;28;20280;-46
2022/09/12 05:48:48;;;;;;;20.55;15.25;;;19.60;54.70;;;;;;5033870;28;20177;-45
2022/09/12 05:51:18;;;;;;;17.05;14.18;;;19.60;54.70;;;;;;5033778;28;20562;-45
2022/09/12 05:53:50;;;;;;;24.80;16.27;;;19.70;54.90;;;;;;5033573;28;20217;-44
2022/09/12 05:56:22;;;;;;;16.48;14.65;;;19.70;54.80;;;;;;5033397;28;20165;-44
2022/09/12 05:58:53;;;;;;;25.27;17.45;;;19.70;54.90;;;;;;5015718;28;20174;-45
2022/09/12 06:01:19;;;;;;;20.80;14.65;;;19.80;54.80;;;;;;5033427;28;20261;-45
2022/09/12 06:03:47;;;;;;;25.00;17.67;;;19.80;54.90;;;;;;5033345;28;20213;-44
2022/09/12 06:06:15;;;;;;;22.25;17.25;;;19.80;54.90;;;;;;5033087;28;20174;-44
2022/09/12 06:08:44;;;;;;;21.45;17.42;;;19.80;54.80;;;;;;5033189;28;20181;-44
2022/09/12 06:11:13;;;;;;;24.50;16.77;;;19.80;54.90;;;;;;5033091;28;20271;-44
2022/09/12 06:13:41;;;;;;;21.60;16.38;;;19.90;54.80;;;;;;5033185;28;20185;-44
2022/09/12 06:16:12;;;;;;;24.63;17.42;;;19.90;54.80;;;;;;5032955;28;20186;-45
2022/09/12 06:18:40;;;;;;;23.83;17.65;;;19.90;54.80;;;;;;5032948;28;20178;-45
2022/09/12 06:21:08;;;;;;;23.10;16.38;;;20.00;54.80;;;;;;5033421;28;20202;-44
2022/09/12 06:23:35;;;;;;;23.35;17.83;;;20.00;54.90;;;;;;5032353;28;20205;-44
2022/09/12 06:26:01;;;;;;;22.70;16.23;;;20.00;54.90;;;;;;5032971;28;20174;-44
2022/09/12 06:28:27;;;;;;;23.88;16.95;;;20.00;54.80;;;;;;5033159;28;20178;-45
2022/09/12 06:31:00;;;;;;;24.10;16.98;;;20.00;55.50;;;;;;5032744;28;20198;-44
2022/09/12 06:33:25;;;;;;;28.65;18.40;;;20.10;54.90;;;;;;5032718;28;20177;-44
2022/09/12 06:35:51;;;;;;;27.27;18.17;;;20.10;55.00;;;;;;5032589;28;20205;-45
2022/09/12 06:38:17;;;;;;;25.27;18.70;;;20.10;54.90;;;;;;5032792;28;20170;-45
2022/09/12 06:40:43;;;;;;;23.47;17.37;;;20.10;54.90;;;;;;5032619;28;20202;-44
2022/09/12 06:43:12;;;;;;;22.90;18.55;;;20.10;54.80;;;;;;5032715;28;20197;-44
2022/09/12 06:45:39;;;;;;;22.52;17.15;;;20.20;54.90;;;;;;5032709;28;20181;-44
2022/09/12 06:48:04;;;;;;;24.95;18.25;;;20.20;54.70;;;;;;5032603;28;20178;-44
2022/09/12 06:50:30;;;;;;;22.57;18.30;;;20.10;54.60;;;;;;5032650;28;20193;-44
2022/09/12 06:52:56;;;;;;;21.60;17.70;;;20.20;54.60;;;;;;5032539;28;20213;-44
2022/09/12 06:55:23;;;;;;;34.63;19.90;;;20.20;54.70;;;;;;5032713;28;20174;-45
2022/09/12 06:57:49;;;;;;;24.95;18.65;;;20.20;54.60;;;;;;5032377;28;20197;-44
2022/09/12 07:00:15;;;;;;;25.80;16.13;;;20.20;54.50;;;;;;5032355;28;20677;-44
2022/09/12 07:02:40;;;;;;;21.43;16.57;;;20.30;54.70;;;;;;5032277;28;20401;-44
2022/09/12 07:05:07;;;;;;;27.23;17.17;;;20.30;54.90;;;;;;5032487;28;20174;-44
2022/09/12 07:07:34;;;;;;;23.52;17.17;;;20.30;54.80;;;;;;5032346;28;20181;-44
2022/09/12 07:10:01;;;;;;;20.45;16.20;;;20.40;54.80;;;;;;5032152;28;20214;-45
2022/09/12 07:12:28;;;;;;;25.58;18.33;;;20.40;54.70;;;;;;5032279;28;20214;-45
2022/09/12 07:14:54;;;;;;;22.02;17.02;;;20.40;54.70;;;;;;5032355;28;20193;-46
2022/09/12 07:17:19;;;;;;;25.37;16.23;;;20.40;54.70;;;;;;5032345;28;20289;-44
2022/09/12 07:19:45;;;;;;;21.33;16.63;;;20.40;54.80;;;;;;5032018;28;20194;-44
2022/09/12 07:22:11;;;;;;;19.50;15.90;;;20.40;54.90;;;;;;5032464;28;20235;-44
2022/09/12 07:24:37;;;;;;;20.73;16.67;;;20.40;54.30;;;;;;5032036;28;20554;-44
2022/09/12 07:27:03;;;;;;;25.33;18.50;;;20.40;54.30;;;;;;5031806;28;20174;-44
2022/09/12 07:29:29;;;;;;;21.43;15.63;;;20.50;54.60;;;;;;5031847;28;20247;-44
2022/09/12 07:31:54;;;;;;;25.23;19.47;;;20.50;54.80;;;;;;5032058;28;20247;-45
2022/09/12 07:34:20;;;;;;;24.20;16.80;;;20.60;54.70;;;;;;5031752;28;20177;-43
2022/09/12 07:36:46;;;;;;;22.23;17.30;;;20.60;54.60;;;;;;5031738;28;20174;-44
2022/09/12 07:39:11;;;;;;;23.73;18.20;;;20.60;54.40;;;;;;5014436;28;20174;-45
2022/09/12 07:41:37;;;;;;;18.83;14.60;;;20.60;54.20;;;;;;5032164;28;20200;-44
2022/09/12 07:44:05;;;;;;;21.90;16.50;;;20.70;54.10;;;;;;5031742;28;20670;-46
2022/09/12 07:46:32;;;;;;;23.45;15.55;;;20.70;54.20;;;;;;5031784;28;20205;-45
2022/09/12 07:48:59;;;;;;;17.42;14.88;;;20.70;54.40;;;;;;5032196;28;20182;-43
2022/09/12 07:51:27;;;;;;;22.73;17.17;;;20.80;54.50;;;;;;5032105;28;20190;-45
2022/09/12 07:53:53;;;;;;;22.40;16.02;;;20.80;54.40;;;;;;5031904;28;20274;-46
2022/09/12 07:56:20;;;;;;;24.93;15.53;;;20.90;54.40;;;;;;5031591;28;20185;-44
2022/09/12 07:58:47;;;;;;;19.65;17.50;;;20.90;54.30;;;;;;5031911;28;20413;-45
2022/09/12 08:01:15;;;;;;;21.40;16.77;;;20.90;54.10;;;;;;5013914;28;20194;-45
2022/09/12 08:03:42;;;;;;;21.48;15.45;;;21.00;54.10;;;;;;5031953;28;20448;-43
2022/09/12 08:06:13;;;;;;;17.75;12.40;;;21.00;54.20;;;;;;5031573;28;20173;-44
2022/09/12 08:08:40;;;;;;;15.40;13.75;;;21.00;54.10;;;;;;5032041;28;20598;-43
2022/09/12 08:11:09;;;;;;;16.15;14.57;;;21.10;54.20;;;;;;5031512;28;20214;-45
2022/09/12 08:13:36;;;;;;;15.93;12.27;;;21.10;54.00;;;;;;5013936;28;20178;-44
2022/09/12 08:16:06;;;;;;;14.43;12.35;;;21.10;53.90;;;;;;5031395;28;20253;-43
2022/09/12 08:18:34;;;;;;;12.48;10.88;;;21.10;53.80;;;;;;5031663;28;20646;-45
2022/09/12 08:21:05;;;;;;;12.40;10.93;;;21.10;53.40;;;;;;5031560;28;20206;-45
2022/09/12 08:23:32;;;;;;;14.53;12.27;;;21.10;53.50;;;;;;5031398;28;20684;-45
2022/09/12 08:26:02;;;;;;;12.37;10.37;;;21.10;53.50;;;;;;5031343;28;20403;-45
2022/09/12 08:28:30;;;;;;;12.93;10.87;;;21.20;53.40;;;;;;5031636;28;20408;-44
2022/09/12 08:31:04;;;;;;;13.50;11.00;;;21.20;53.40;;;;;;5031590;28;20448;-45
2022/09/12 08:33:33;;;;;;;14.50;10.90;;;21.20;53.30;;;;;;5031403;28;20458;-45
2022/09/12 08:36:20;;;;;;;14.70;9.98;;;21.20;53.00;;;;;;5031562;28;20408;-44
2022/09/12 08:38:48;;;;;;;14.50;12.50;;;21.30;52.80;;;;;;5031723;28;20526;-43
2022/09/12 08:41:36;;;;;;;14.27;12.27;;;21.30;52.90;;;;;;5031348;28;20436;-45
2022/09/12 08:44:28;;;;;;;13.27;11.87;;;21.50;53.10;;;;;;5031381;28;20964;-45
2022/09/12 08:47:01;;;;;;;12.60;11.30;;;21.60;52.40;;;;;;5031945;28;20495;-44
2022/09/12 08:49:34;;;;;;;11.93;10.13;;;21.60;52.40;;;;;;5034801;28;20186;-44
2022/09/12 08:52:08;;;;;;;10.57;8.77;;;21.70;51.60;;;;;;5035183;28;20397;-45
2022/09/12 08:54:34;;;;;;;9.17;8.07;;;21.80;51.00;;;;;;5034772;28;20396;-43
2022/09/12 08:57:05;;;;;;;9.00;7.73;;;22.00;51.60;;;;;;5034756;28;20487;-44
2022/09/12 08:59:38;;;;;;;9.10;7.87;;;22.20;51.60;;;;;;5034775;28;20244;-44
2022/09/12 09:02:26;;;;;;;9.77;8.53;;;22.20;50.40;;;;;;5034990;28;20389;-44
2022/09/12 09:05:00;;;;;;;10.63;9.00;;;22.40;50.90;;;;;;5034607;28;20526;-44
2022/09/12 09:07:37;;;;;;;9.43;8.43;;;22.50;51.10;;;;;;5034305;28;20408;-44
2022/09/12 09:10:23;;;;;;;9.00;8.10;;;22.50;49.10;;;;;;5034423;28;20436;-45
2022/09/12 09:13:13;;;;;;;9.63;8.00;;;22.50;49.00;;;;;;5034420;28;20400;-45
2022/09/12 09:16:03;;;;;;;9.77;8.50;;;22.50;49.20;;;;;;5034118;28;20468;-43
2022/09/12 09:18:33;;;;;;;8.70;7.27;;;22.50;50.00;;;;;;5034308;28;20411;-46
2022/09/12 09:21:22;;;;;;;8.47;7.67;;;22.50;50.40;;;;;;5034259;28;20421;-45
2022/09/12 09:24:16;;;;;;;7.67;6.70;;;22.70;51.10;;;;;;5034072;28;20967;-45
2022/09/12 09:26:59;;;;;;;8.87;7.73;;;22.80;50.50;;;;;;5031109;28;20466;-43
2022/09/12 09:29:44;;;;;;;12.00;8.17;;;22.90;48.30;;;;;;5034028;28;20428;-47
2022/09/12 09:32:17;;;;;;;9.23;8.30;;;22.70;47.80;;;;;;5034160;28;20443;-45
2022/09/12 09:34:43;;;;;;;9.10;7.70;;;22.70;47.40;;;;;;5033888;28;20954;-45
2022/09/12 09:37:19;;;;;;;10.50;7.40;;;22.60;47.90;;;;;;5033969;28;20448;-44
2022/09/12 09:40:13;;;;;;;9.97;8.87;;;22.60;48.40;;;;;;5033887;28;20851;-44
2022/09/12 09:42:59;;;;;;;8.70;7.83;;;22.70;48.70;;;;;;5033849;28;20488;-44
2022/09/12 09:45:28;;;;;;;7.73;7.03;;;22.80;48.70;;;;;;5034005;28;20412;-45
2022/09/12 09:48:09;;;;;;;9.90;8.00;;;22.90;46.50;;;;;;5033549;28;20904;-45
2022/09/12 09:50:36;;;;;;;8.93;7.00;;;23.00;46.80;;;;;;5033750;28;20432;-44
2022/09/12 09:53:04;;;;;;;6.60;6.00;;;22.90;45.80;;;;;;5033927;28;20401;-44
2022/09/12 09:55:37;;;;;;;7.63;6.60;;;22.80;45.90;;;;;;5033651;28;20896;-46
2022/09/12 09:58:03;;;;;;;6.50;5.90;;;22.80;46.70;;;;;;5033803;28;20446;-43
2022/09/12 10:00:32;;;;;;;5.30;4.80;;;22.80;47.30;;;;;;5033747;28;20424;-44
2022/09/12 10:03:11;;;;;;;7.23;6.53;;;22.80;47.80;;;;;;5033467;28;20413;-44
2022/09/12 10:06:05;;;;;;;6.73;6.03;;;23.00;47.90;;;;;;5033185;28;20928;-45
2022/09/12 10:08:32;;;;;;;5.90;5.13;;;23.10;47.20;;;;;;5033590;28;20531;-44
2022/09/12 10:11:00;;;;;;;9.00;5.90;;;23.20;46.70;;;;;;5033206;28;21173;-43
2022/09/12 10:13:41;;;;;;;5.30;4.80;;;23.20;45.90;;;;;;5033143;28;20411;-44
2022/09/12 10:16:18;;;;;;;5.93;5.33;;;23.20;46.50;;;;;;5032993;28;20404;-44
2022/09/12 10:18:44;;;;;;;5.37;4.60;;;23.20;46.80;;;;;;5033411;28;20407;-44
2022/09/12 10:21:35;;;;;;;4.50;4.10;;;23.10;47.00;;;;;;5033118;28;20498;-45
2022/09/12 10:24:24;;;;;;;4.03;3.63;;;23.10;46.90;;;;;;5023605;28;20593;-45
2022/09/12 10:27:10;;;;;;;4.27;3.87;;;23.00;45.20;;;;;;5033071;28;20411;-46
2022/09/12 10:29:47;;;;;;;5.10;4.37;;;22.90;46.70;;;;;;5019037;28;20437;-44
2022/09/12 10:32:23;;;;;;;3.23;3.03;;;23.00;46.00;;;;;;5033274;28;20393;-45
2022/09/12 10:34:54;;;;;;;6.70;4.17;;;22.90;45.00;;;;;;5032860;28;20400;-45
2022/09/12 10:37:52;;;;;;;4.70;4.30;;;22.90;45.80;;;;;;5032853;28;20429;-46
2022/09/12 10:40:31;;;;;;;4.57;4.00;;;23.00;46.30;;;;;;5005564;28;20955;-46
2022/09/12 10:42:59;;;;;;;3.83;3.30;;;23.10;46.40;;;;;;5032621;28;20394;-46
2022/09/12 10:45:27;;;;;;;7.23;3.30;;;23.10;46.40;;;;;;5032815;28;20404;-45
2022/09/12 10:47:55;;;;;;;3.97;3.43;;;23.10;46.50;;;;;;5032710;28;20408;-45
2022/09/12 10:50:34;;;;;;;4.20;3.60;;;23.20;46.60;;;;;;5032693;28;20432;-45
2022/09/12 10:53:24;;;;;;;5.13;3.97;;;23.30;46.20;;;;;;5032662;28;20412;-45
2022/09/12 10:56:37;;;;;;;4.13;3.73;;;23.50;46.30;;;;;;5032657;28;20593;-46
2022/09/12 10:59:15;;;;;;;4.00;3.57;;;23.60;46.20;;;;;;4988432;28;20415;-46
2022/09/12 11:01:49;;;;;;;2.67;2.47;;;23.80;45.50;;;;;;5032743;28;20397;-45
2022/09/12 11:04:37;;;;;;;4.03;3.37;;;24.00;45.30;;;;;;5032562;28;20440;-46
2022/09/12 11:07:21;;;;;;;4.00;3.10;;;24.10;42.70;;;;;;5032209;28;20381;-45
2022/09/12 11:09:56;;;;;;;3.60;3.30;;;24.20;41.20;;;;;;5031746;28;20463;-46
2022/09/12 11:12:25;;;;;;;4.17;3.80;;;24.30;42.60;;;;;;5032173;28;20912;-44
2022/09/12 11:14:59;;;;;;;4.30;3.53;;;24.50;41.80;;;;;;5032473;28;20797;-45
2022/09/12 11:17:44;;;;;;;3.53;2.93;;;24.70;41.20;;;;;;5032269;28;20404;-46
2022/09/12 11:20:21;;;;;;;3.10;2.70;;;24.90;41.70;;;;;;5032178;28;20512;-45
2022/09/12 11:23:03;;;;;;;3.30;2.90;;;25.00;40.40;;;;;;5032132;28;20894;-45
2022/09/12 11:25:50;;;;;;;2.30;1.70;;;25.20;41.50;;;;;;5032243;28;20404;-45
2022/09/12 11:28:19;;;;;;;2.50;2.10;;;25.30;39.80;;;;;;5032009;28;20488;-45
2022/09/12 11:31:15;;;;;;;1.90;1.60;;;25.40;40.80;;;;;;5032235;28;20471;-45
2022/09/12 11:33:44;;;;;;;2.30;2.00;;;25.50;40.20;;;;;;5032660;28;20385;-46
2022/09/12 11:36:56;;;;;;;3.00;2.37;;;25.50;40.50;;;;;;5031739;28;20785;-46
2022/09/12 11:39:39;;;;;;;3.90;2.60;;;25.50;40.00;;;;;;5027039;28;20797;-44
2022/09/12 11:42:11;;;;;;;3.17;2.87;;;25.30;40.50;;;;;;5032144;28;20471;-45
2022/09/12 11:44:45;;;;;;;3.27;2.50;;;25.20;40.80;;;;;;5032002;28;20483;-46
2022/09/12 11:47:12;;;;;;;3.77;3.00;;;25.00;41.20;;;;;;5031926;28;20447;-46
2022/09/12 11:49:49;;;;;;;3.33;2.70;;;24.90;42.10;;;;;;5031825;28;20577;-45
2022/09/12 11:52:21;;;;;;;3.20;2.70;;;24.90;41.50;;;;;;5031856;28;20392;-46
2022/09/12 11:54:59;;;;;;;2.97;2.20;;;24.80;41.50;;;;;;5032027;28;20412;-45
2022/09/12 11:57:42;;;;;;;3.10;2.57;;;24.80;41.30;;;;;;5031818;28;20752;-46
2022/09/12 12:00:21;;;;;;;2.70;2.40;;;24.90;41.80;;;;;;5031767;28;20428;-45
2022/09/12 12:03:16;;;;;;;3.07;2.83;;;25.00;41.90;;;;;;5031773;28;20404;-46
2022/09/12 12:05:52;;;;;;;4.70;2.50;;;25.00;41.70;;;;;;5024437;28;20427;-45
2022/09/12 12:08:20;;;;;;;2.97;2.23;;;25.00;41.30;;;;;;5032040;28;20385;-45
2022/09/12 12:10:58;;;;;;;3.00;2.07;;;25.00;41.30;;;;;;5031442;28;20458;-45
2022/09/12 12:13:30;;;;;;;2.77;2.20;;;25.00;41.30;;;;;;5031935;28;20432;-44
2022/09/12 12:16:13;;;;;;;3.30;2.97;;;25.10;41.40;;;;;;5031519;28;20404;-44
2022/09/12 12:18:41;;;;;;;4.03;2.37;;;25.10;41.40;;;;;;5031713;28;20446;-45
2022/09/12 12:21:28;;;;;;;3.10;1.90;;;25.10;41.30;;;;;;5031441;28;20971;-45
2022/09/12 12:24:09;;;;;;;6.17;3.00;;;25.10;41.20;;;;;;5035374;28;20447;-45
2022/09/12 12:26:43;;;;;;;3.83;2.57;;;25.10;41.20;;;;;;5035287;28;20501;-46
2022/09/12 12:29:16;;;;;;;2.87;2.30;;;25.00;40.70;;;;;;5035311;28;20406;-46
2022/09/12 12:32:03;;;;;;;2.70;2.50;;;25.00;40.80;;;;;;5035149;28;20479;-46
2022/09/12 12:34:33;;;;;;;2.13;1.80;;;25.00;40.80;;;;;;5035265;28;20412;-46
2022/09/12 12:37:19;;;;;;;2.33;2.10;;;25.00;39.90;;;;;;5035162;28;20393;-45
2022/09/12 12:39:52;;;;;;;2.50;1.80;;;25.10;40.80;;;;;;5034843;28;20428;-45
2022/09/12 12:42:33;;;;;;;2.23;2.00;;;25.20;41.00;;;;;;5035401;28;20499;-45
2022/09/12 12:45:08;;;;;;;2.90;2.60;;;25.30;40.40;;;;;;5034823;28;20451;-46
2022/09/12 12:47:43;;;;;;;4.17;1.93;;;25.40;40.30;;;;;;5034963;28;20400;-45
2022/09/12 12:50:20;;;;;;;4.77;1.97;;;25.50;40.10;;;;;;5034785;28;20423;-44
2022/09/12 12:53:26;;;;;;;3.40;1.80;;;25.60;40.20;;;;;;5035099;28;20429;-46
2022/09/12 12:55:54;;;;;;;4.40;2.40;;;25.60;40.20;;;;;;5034162;28;20928;-46
2022/09/12 12:58:35;;;;;;;3.30;2.13;;;25.50;39.60;;;;;;5034688;28;20404;-46
2022/09/12 13:01:21;;;;;;;3.20;2.00;;;25.50;39.70;;;;;;5034892;28;20830;-46
2022/09/12 13:04:01;;;;;;;3.00;1.90;;;25.40;39.90;;;;;;5034449;28;20460;-46